首页
METAR-TAF:

METAR-TAF

机场 :

魁北克让·勒萨热国际机场

魁北克, 魁北克, 加拿大

纬度: 46-48N, 经度: 071-23W, 海拔: 70米

当前天气观测

该预报发布于37分钟前的12:00 UTC
风速5节,风向
温度 17°C
湿度 82%
气压 1013 hPa
能見度: 48.3公里
少量云层高于1700英尺
少量云层高于3000英尺
多云层高于24000英尺
多云层高于26000英尺

METAR: CYQB 181200Z 01005KT 30SM FEW017 FEW030 BKN240 BKN260 17/14 A2990 RMK SC1SC1CS4CI2 SC TR SLP126 DENSITY ALT 600FT

时间: 08:37 (12:37 UTC)

预报

该预报发布于56分钟前的11:41 UTC
预报有效从18日的 12点(UTC)到 19日的 12点(UTC)
风速7节,风向东北
能見度: 10公里
少量云层高于1500英尺
多云层高于24000英尺
短暂存在
从 18日的 12点(UTC)到 18日的 13点(UTC)
能見度: 8.0公里
轻雾
从 18日的 1800点(UTC)
风速10节,风向东转东北
能見度: 10公里
多云层高于5000英尺
成为
从 18日的 22点(UTC)到 18日的 24点(UTC)
风速6节,风向东北
从 19日的 0500点(UTC)
风速5节,风向东北
能見度: 10公里
散云层高于6000英尺

TAF: CYQB 181141Z 1812/1912 05007KT P6SM FEW015 BKN240 TEMPO 1812/1813 5SM BR FM181800 07010KT P6SM BKN050 BECMG 1822/1824 05006KT FM190500 05005KT P6SM SCT060 RMK NXT FCST BY 181800Z

超过4000个机场的气象观测和天气预报(METAR&TAF报告)。

可查询的气象台以黄色和红色小点在地图上表示。

将鼠标移到小点上方,可查看气象台名称。

然后点击查看天气观测和预报。

如需切换地图:点击带黑十字的绿色按钮放大地图;点击带横线的绿色按钮缩小地图;或者点击绿色箭头查看邻近地区的地图。


METAR-TAF: